createdAt,value
2019-06-07T00:00:37.565Z,4.60
2019-06-07T00:02:57.099Z,4.50
2019-06-07T00:05:26.462Z,4.53
2019-06-07T00:08:07.126Z,4.28
2019-06-07T00:10:36.073Z,4.80
2019-06-07T00:12:58.049Z,4.50
2019-06-07T00:15:28.928Z,4.17
2019-06-07T00:17:59.041Z,4.25
2019-06-07T00:20:28.420Z,4.47
2019-06-07T00:22:57.792Z,4.47
2019-06-07T00:25:27.178Z,3.27
2019-06-07T00:27:56.540Z,4.87
2019-06-07T00:30:41.044Z,4.37
2019-06-07T00:32:58.374Z,4.33
2019-06-07T00:35:27.734Z,3.85
2019-06-07T00:37:57.107Z,4.17
2019-06-07T00:40:31.712Z,3.93
2019-06-07T00:42:58.205Z,3.60
2019-06-07T00:45:27.516Z,3.43
2019-06-07T00:47:56.929Z,3.52
2019-06-07T00:50:26.573Z,3.43
2019-06-07T00:53:14.515Z,3.65
2019-06-07T00:55:27.866Z,3.23
2019-06-07T00:57:57.234Z,3.90
2019-06-07T01:00:26.756Z,4.10
2019-06-07T01:02:56.344Z,4.15
2019-06-07T01:05:30.989Z,4.53
2019-06-07T01:07:56.805Z,3.77
2019-06-07T01:10:51.766Z,4.17
2019-06-07T01:12:57.295Z,3.62
2019-06-07T01:15:29.466Z,3.73
2019-06-07T01:18:33.498Z,3.35
2019-06-07T01:20:30.540Z,3.58
2019-06-07T01:22:59.915Z,3.20
2019-06-07T01:25:29.304Z,3.10
2019-06-07T01:27:58.676Z,2.83
2019-06-07T01:30:29.453Z,2.75
2019-06-07T01:32:59.584Z,2.85
2019-06-07T01:35:30.464Z,2.35
2019-06-07T01:37:59.833Z,3.02
2019-06-07T01:40:32.501Z,2.40
2019-06-07T01:43:01.027Z,2.45
2019-06-07T01:45:31.183Z,2.30
2019-06-07T01:48:00.768Z,2.50
2019-06-07T01:50:30.145Z,2.62
2019-06-07T01:52:59.517Z,2.17
2019-06-07T01:55:32.550Z,2.40
2019-06-07T01:58:00.007Z,2.58
2019-06-07T02:00:32.318Z,2.25
2019-06-07T02:03:00.993Z,2.52
2019-06-07T02:05:32.349Z,2.05
2019-06-07T02:08:01.706Z,2.20
2019-06-07T02:10:33.649Z,2.10
2019-06-07T02:13:04.410Z,2.00
2019-06-07T02:15:36.652Z,1.90
2019-06-07T02:18:05.162Z,1.77
2019-06-07T02:20:34.800Z,1.85
2019-06-07T02:23:04.229Z,2.12
2019-06-07T02:25:43.025Z,1.82
2019-06-07T02:28:26.759Z,2.12
2019-06-07T02:30:44.647Z,2.92
2019-06-07T02:33:07.385Z,2.10
2019-06-07T02:35:40.488Z,2.05
2019-06-07T02:38:07.925Z,2.20
2019-06-07T02:40:37.729Z,2.20
2019-06-07T02:43:07.364Z,2.37
2019-06-07T02:45:43.047Z,2.25
2019-06-07T02:48:08.382Z,2.60
2019-06-07T02:50:38.778Z,3.22
2019-06-07T02:53:08.428Z,2.45
2019-06-07T02:56:32.829Z,2.40
2019-06-07T02:58:08.928Z,2.50
2019-06-07T03:01:06.058Z,2.70
2019-06-07T03:03:18.108Z,2.70
2019-06-07T03:05:49.283Z,3.10
2019-06-07T03:08:19.382Z,2.62
2019-06-07T03:10:50.845Z,2.50
2019-06-07T03:13:22.327Z,2.92
2019-06-07T03:15:53.985Z,2.80
2019-06-07T03:18:29.093Z,2.83
2019-06-07T03:21:05.151Z,3.27
2019-06-07T03:23:33.822Z,2.85
2019-06-07T03:26:07.343Z,2.90
2019-06-07T03:28:39.175Z,3.00
2019-06-07T03:31:07.805Z,3.05
2019-06-07T03:33:42.833Z,2.70
2019-06-07T03:36:23.234Z,3.02
2019-06-07T03:38:40.009Z,2.85
2019-06-07T03:41:10.166Z,3.15
2019-06-07T03:43:40.755Z,3.15
2019-06-07T03:46:10.392Z,2.65
2019-06-07T03:48:41.524Z,2.77
2019-06-07T03:51:24.785Z,3.07
2019-06-07T03:53:43.990Z,2.60
2019-06-07T03:56:13.873Z,2.77
2019-06-07T03:58:49.472Z,2.55
2019-06-07T04:01:14.547Z,2.60
2019-06-07T04:03:51.369Z,2.72
2019-06-07T04:06:15.068Z,2.55
2019-06-07T04:08:44.451Z,3.10
2019-06-07T04:11:13.848Z,2.70
2019-06-07T04:13:43.335Z,2.87
2019-06-07T04:16:12.663Z,2.85
2019-06-07T04:18:42.632Z,2.80
2019-06-07T04:21:12.305Z,2.45
2019-06-07T04:23:45.751Z,2.45
2019-06-07T04:26:13.461Z,2.40
2019-06-07T04:29:30.822Z,2.35
2019-06-07T04:31:14.226Z,2.47
2019-06-07T04:33:43.910Z,2.62
2019-06-07T04:36:14.432Z,2.47
2019-06-07T04:38:45.607Z,2.50
2019-06-07T04:41:16.645Z,2.62
2019-06-07T04:43:48.715Z,2.40
2019-06-07T04:46:21.861Z,2.52
2019-06-07T04:48:53.556Z,2.70
2019-06-07T04:51:26.346Z,3.12
2019-06-07T04:53:55.719Z,2.72
2019-06-07T04:56:25.663Z,3.55
2019-06-07T04:58:55.037Z,3.15
2019-06-07T05:01:27.662Z,2.30
2019-06-07T05:03:55.530Z,2.10
2019-06-07T05:06:24.906Z,2.50
2019-06-07T05:08:54.269Z,2.40
2019-06-07T05:11:23.656Z,2.40
2019-06-07T05:13:53.024Z,2.83
2019-06-07T05:16:22.399Z,2.52
2019-06-07T05:18:52.134Z,2.45
2019-06-07T05:21:21.518Z,2.67
2019-06-07T05:24:10.435Z,3.05
2019-06-07T05:26:22.001Z,2.40
2019-06-07T05:28:51.361Z,2.47
2019-06-07T05:31:20.742Z,2.47
2019-06-07T05:33:50.139Z,2.22
2019-06-07T05:36:19.519Z,2.70
2019-06-07T05:38:48.904Z,2.42
2019-06-07T05:41:18.759Z,2.17
2019-06-07T05:44:07.626Z,1.85
2019-06-07T05:46:19.645Z,2.37
2019-06-07T05:48:49.017Z,2.45
2019-06-07T05:51:18.361Z,2.22
2019-06-07T05:53:47.817Z,2.15
2019-06-07T05:56:17.586Z,2.30
2019-06-07T05:58:47.322Z,2.40
2019-06-07T06:03:48.432Z,2.12
2019-06-07T06:06:18.621Z,3.10
2019-06-07T06:08:49.589Z,2.35
2019-06-07T06:11:19.133Z,2.80
2019-06-07T06:14:05.326Z,2.30
2019-06-07T06:16:19.713Z,3.20
2019-06-07T06:18:49.787Z,4.85
2019-06-07T06:21:20.458Z,2.40
2019-06-07T06:23:51.610Z,2.50
2019-06-07T06:26:21.353Z,2.37
2019-06-07T06:28:50.794Z,2.08
2019-06-07T06:31:20.169Z,2.10
2019-06-07T06:33:50.168Z,2.47
2019-06-07T06:36:20.169Z,2.17
2019-06-07T06:38:51.618Z,2.30
2019-06-07T06:41:21.822Z,2.27
2019-06-07T06:43:52.660Z,2.27
2019-06-07T06:46:38.177Z,2.12
2019-06-07T06:48:55.781Z,2.10
2019-06-07T06:51:25.319Z,2.58
2019-06-07T06:53:54.689Z,2.50
2019-06-07T06:56:25.584Z,2.47
2019-06-07T07:01:26.067Z,2.25
2019-06-07T07:04:10.531Z,3.60
2019-06-07T07:06:27.275Z,2.30
2019-06-07T07:08:58.460Z,2.33
2019-06-07T07:11:28.140Z,2.40
2019-06-07T07:13:58.146Z,2.12
2019-06-07T07:16:27.520Z,2.12
2019-06-07T07:18:56.901Z,2.40
2019-06-07T07:21:26.367Z,2.37
2019-06-07T07:24:19.540Z,2.83
2019-06-07T07:26:26.787Z,3.20
2019-06-07T07:28:57.766Z,2.70
2019-06-07T07:31:27.337Z,2.50
2019-06-07T07:34:30.956Z,2.70
2019-06-07T07:36:38.852Z,2.70
2019-06-07T07:39:04.727Z,2.75
2019-06-07T07:41:30.051Z,2.80
2019-06-07T07:44:06.533Z,2.60
2019-06-07T07:46:31.160Z,2.85
2019-06-07T07:49:01.198Z,2.65
2019-06-07T07:51:31.803Z,2.37
2019-06-07T07:54:09.988Z,3.08
2019-06-07T07:56:32.348Z,3.25
2019-06-07T07:59:02.855Z,3.10
2019-06-07T08:01:32.465Z,3.10
2019-06-07T08:04:02.198Z,3.33
2019-06-07T08:06:31.601Z,3.27
2019-06-07T08:09:00.979Z,3.58
2019-06-07T08:11:30.453Z,3.02
2019-06-07T08:13:59.808Z,3.12
2019-06-07T08:16:29.199Z,3.60
2019-06-07T08:19:03.809Z,2.87
2019-06-07T08:21:29.745Z,3.17
2019-06-07T08:24:03.662Z,7.87
2019-06-07T08:26:31.289Z,3.50
2019-06-07T08:31:34.066Z,3.62
2019-06-07T08:34:04.125Z,3.20
2019-06-07T08:36:41.941Z,2.80
2019-06-07T08:39:08.270Z,2.98
2019-06-07T08:41:53.457Z,3.05
2019-06-07T08:44:22.655Z,3.55
2019-06-07T08:46:40.615Z,2.95
2019-06-07T08:49:10.022Z,2.90
2019-06-07T08:51:39.630Z,3.33
2019-06-07T08:54:22.443Z,2.85
2019-06-07T08:56:43.564Z,3.53
2019-06-07T08:59:13.107Z,3.25
2019-06-07T09:01:42.505Z,2.90
2019-06-07T09:04:12.137Z,2.70
2019-06-07T09:07:02.533Z,3.35
2019-06-07T09:09:12.693Z,2.77
2019-06-07T09:11:42.196Z,2.92
2019-06-07T09:14:11.587Z,2.58
2019-06-07T09:16:41.067Z,3.47
2019-06-07T09:19:11.390Z,3.52
2019-06-07T09:21:40.876Z,3.05
2019-06-07T09:24:11.772Z,3.08
2019-06-07T09:26:41.440Z,6.90
2019-06-07T09:29:12.013Z,3.30
2019-06-07T09:31:52.872Z,2.75
2019-06-07T09:34:15.080Z,2.65
2019-06-07T09:36:44.713Z,3.20
2019-06-07T09:39:14.153Z,2.95
2019-06-07T09:41:49.720Z,2.70
2019-06-07T09:44:25.193Z,2.85
2019-06-07T09:46:46.024Z,2.95
2019-06-07T09:49:28.600Z,3.27
2019-06-07T09:51:46.970Z,3.20
2019-06-07T09:55:02.627Z,3.22
2019-06-07T09:56:49.054Z,2.95
2019-06-07T09:59:18.431Z,3.60
2019-06-07T10:01:47.833Z,3.58
2019-06-07T10:04:30.857Z,3.20
2019-06-07T10:06:48.557Z,2.17
2019-06-07T10:11:49.596Z,3.10
2019-06-07T10:14:19.061Z,2.87
2019-06-07T10:16:48.926Z,2.90
2019-06-07T10:19:19.188Z,3.17
2019-06-07T10:21:48.559Z,3.00
2019-06-07T10:24:17.949Z,2.87
2019-06-07T10:26:47.326Z,2.80
2019-06-07T10:31:52.828Z,2.58
2019-06-07T10:34:22.201Z,2.85
2019-06-07T10:36:51.674Z,3.20
2019-06-07T10:39:21.814Z,3.27
2019-06-07T10:41:53.977Z,2.67
2019-06-07T10:44:22.282Z,2.62
2019-06-07T10:46:51.666Z,2.80
2019-06-07T10:49:21.051Z,2.30
2019-06-07T10:51:50.451Z,2.35
2019-06-07T10:54:26.719Z,2.80
2019-06-07T10:56:50.927Z,2.37
2019-06-07T10:59:21.049Z,2.33
2019-06-07T11:01:50.785Z,2.33
2019-06-07T11:04:20.192Z,2.50
2019-06-07T11:06:49.570Z,1.90
2019-06-07T11:09:18.952Z,2.17
2019-06-07T11:11:48.330Z,2.40
2019-06-07T11:14:17.697Z,2.67
2019-06-07T11:16:47.130Z,2.33
2019-06-07T11:19:19.354Z,1.90
2019-06-07T11:21:47.769Z,2.72
2019-06-07T11:24:23.682Z,2.27
2019-06-07T11:26:48.927Z,2.40
2019-06-07T11:29:19.200Z,2.00
2019-06-07T11:31:48.592Z,2.20
2019-06-07T11:34:18.897Z,2.30
2019-06-07T11:36:51.022Z,2.30
2019-06-07T11:39:19.786Z,1.90
2019-06-07T11:41:49.240Z,2.00
2019-06-07T11:44:18.892Z,16.32
2019-06-07T11:46:48.275Z,3.17
2019-06-07T11:49:20.286Z,3.00
2019-06-07T11:51:48.804Z,2.10
2019-06-07T11:54:20.302Z,2.45
2019-06-07T11:56:49.429Z,2.08
2019-06-07T11:59:18.774Z,2.52
2019-06-07T12:01:49.596Z,2.62
2019-06-07T12:04:32.408Z,2.00
2019-06-07T12:06:50.132Z,1.98
2019-06-07T12:09:19.706Z,2.02
2019-06-07T12:11:49.056Z,2.40
2019-06-07T12:14:19.334Z,2.33
2019-06-07T12:16:48.837Z,2.12
2019-06-07T12:19:19.672Z,2.10
2019-06-07T12:21:49.165Z,1.60
2019-06-07T12:24:19.833Z,1.90
2019-06-07T12:26:49.973Z,1.77
2019-06-07T12:29:19.374Z,2.00
2019-06-07T12:31:48.752Z,1.50
2019-06-07T12:34:19.434Z,2.10
2019-06-07T12:36:48.846Z,2.73
2019-06-07T12:39:18.215Z,2.62
2019-06-07T12:41:47.607Z,2.15
2019-06-07T12:44:18.514Z,3.33
2019-06-07T12:46:48.422Z,2.50
2019-06-07T12:49:19.118Z,1.85
2019-06-07T12:51:48.626Z,2.27
2019-06-07T12:54:18.080Z,2.00
2019-06-07T12:56:47.452Z,2.30
2019-06-07T12:59:17.960Z,2.05
2019-06-07T13:01:47.298Z,2.20
2019-06-07T13:04:18.487Z,2.33
2019-06-07T13:06:47.945Z,2.90
2019-06-07T13:09:17.943Z,2.40
2019-06-07T13:11:47.319Z,2.17
2019-06-07T13:14:17.778Z,1.98
2019-06-07T13:16:47.293Z,2.30
2019-06-07T13:19:17.984Z,2.55
2019-06-07T13:21:47.795Z,2.50
2019-06-07T13:24:18.796Z,2.60
2019-06-07T13:26:48.508Z,2.25
2019-06-07T13:29:18.751Z,2.20
2019-06-07T13:31:48.398Z,2.15
2019-06-07T13:34:18.571Z,2.20
2019-06-07T13:36:48.553Z,2.02
2019-06-07T13:39:19.521Z,2.70
2019-06-07T13:41:49.355Z,2.20
2019-06-07T13:44:18.796Z,2.50
2019-06-07T13:46:48.134Z,2.02
2019-06-07T13:49:17.508Z,2.25
2019-06-07T13:51:47.192Z,2.52
2019-06-07T13:54:18.477Z,2.40
2019-06-07T13:57:01.301Z,2.75
2019-06-07T13:59:20.451Z,2.20
2019-06-07T14:01:50.201Z,2.60
2019-06-07T14:04:20.907Z,3.20
2019-06-07T14:06:51.644Z,2.10
2019-06-07T14:09:21.483Z,2.37
2019-06-07T14:11:51.192Z,2.43
2019-06-07T14:14:21.980Z,2.58
2019-06-07T14:16:51.469Z,2.45
2019-06-07T14:19:22.571Z,2.30
2019-06-07T14:21:52.160Z,2.52
2019-06-07T14:24:22.945Z,3.17
2019-06-07T14:27:07.770Z,2.60
2019-06-07T14:29:41.173Z,3.30
2019-06-07T14:34:40.142Z,2.62
2019-06-07T14:37:09.545Z,2.25
2019-06-07T14:39:38.905Z,2.47
2019-06-07T14:42:10.252Z,2.40
2019-06-07T14:44:39.269Z,2.80
2019-06-07T14:47:08.630Z,2.35
2019-06-07T14:49:38.071Z,2.40
2019-06-07T14:52:07.640Z,2.45
2019-06-07T14:54:39.146Z,2.52
2019-06-07T14:57:08.156Z,2.80
2019-06-07T14:59:38.820Z,2.12
2019-06-07T15:02:08.393Z,2.60
2019-06-07T15:04:42.106Z,2.50
2019-06-07T15:07:14.352Z,2.45
2019-06-07T15:09:45.024Z,2.30
2019-06-07T15:12:24.594Z,5.70
2019-06-07T15:14:45.568Z,2.55
2019-06-07T15:17:14.962Z,1.98
2019-06-07T15:19:44.364Z,2.30
2019-06-07T15:22:13.759Z,2.47
2019-06-07T15:24:43.522Z,2.33
2019-06-07T15:27:12.912Z,2.33
2019-06-07T15:29:42.559Z,2.40
2019-06-07T15:32:12.192Z,2.70
2019-06-07T15:34:41.849Z,2.42
2019-06-07T15:37:11.231Z,2.80
2019-06-07T15:39:40.732Z,2.42
2019-06-07T15:42:10.369Z,1.90
2019-06-07T15:44:39.783Z,2.20
2019-06-07T15:47:09.169Z,2.37
2019-06-07T15:49:38.558Z,2.50
2019-06-07T15:52:08.267Z,2.25
2019-06-07T15:54:38.499Z,2.62
2019-06-07T15:57:07.980Z,2.58
2019-06-07T15:59:37.494Z,2.83
2019-06-07T16:02:06.854Z,2.87
2019-06-07T16:04:36.224Z,3.17
2019-06-07T16:07:05.687Z,2.77
2019-06-07T16:09:36.317Z,2.72
2019-06-07T16:12:06.323Z,2.37
2019-06-07T16:14:36.984Z,2.55
2019-06-07T16:17:06.354Z,2.83
2019-06-07T16:19:41.046Z,3.75
2019-06-07T16:22:07.059Z,3.37
2019-06-07T16:24:37.651Z,4.42
2019-06-07T16:27:07.016Z,3.50
2019-06-07T16:29:36.541Z,3.05
2019-06-07T16:32:05.922Z,2.75
2019-06-07T16:34:35.296Z,3.00
2019-06-07T16:37:05.167Z,3.20
2019-06-07T16:39:36.221Z,3.30
2019-06-07T16:42:05.695Z,3.17
2019-06-07T16:44:36.350Z,3.25
2019-06-07T16:47:05.975Z,4.15
2019-06-07T16:49:36.650Z,3.15
2019-06-07T16:52:06.541Z,3.13
2019-06-07T16:54:37.282Z,3.02
2019-06-07T16:57:06.866Z,4.00
2019-06-07T16:59:36.810Z,3.00
2019-06-07T17:02:06.257Z,3.60
2019-06-07T17:04:35.646Z,3.30
2019-06-07T17:07:05.033Z,3.30
2019-06-07T17:09:34.472Z,3.22
2019-06-07T17:12:03.908Z,3.37
2019-06-07T17:14:35.139Z,3.45
2019-06-07T17:17:05.171Z,3.92
2019-06-07T17:19:34.628Z,3.60
2019-06-07T17:22:04.189Z,3.70
2019-06-07T17:24:33.543Z,4.30
2019-06-07T17:27:02.929Z,4.37
2019-06-07T17:32:18.603Z,4.53
2019-06-07T17:34:48.241Z,4.20
2019-06-07T17:37:17.740Z,4.65
2019-06-07T17:39:47.125Z,4.50
2019-06-07T17:42:16.503Z,4.40
2019-06-07T17:44:47.077Z,4.53
2019-06-07T17:47:16.637Z,4.58
2019-06-07T17:49:46.022Z,4.78
2019-06-07T17:52:15.393Z,4.62
2019-06-07T17:54:45.928Z,4.92
2019-06-07T17:57:15.328Z,4.15
2019-06-07T17:59:44.718Z,4.90
2019-06-07T18:02:15.686Z,4.95
2019-06-07T18:04:45.285Z,4.62
2019-06-07T18:07:16.007Z,5.35
2019-06-07T18:09:45.449Z,5.35
2019-06-07T18:12:14.858Z,5.03
2019-06-07T18:14:44.319Z,4.85
2019-06-07T18:17:15.302Z,4.97
2019-06-07T18:19:45.323Z,5.55
2019-06-07T18:22:15.081Z,5.30
2019-06-07T18:24:44.535Z,6.58
2019-06-07T18:27:13.906Z,5.60
2019-06-07T18:29:43.308Z,5.15
2019-06-07T18:32:13.604Z,7.15
2019-06-07T18:34:43.157Z,6.12
2019-06-07T18:37:12.555Z,6.40
2019-06-07T18:39:42.147Z,6.85
2019-06-07T18:42:11.578Z,6.67
2019-06-07T18:44:40.950Z,7.03
2019-06-07T18:47:10.330Z,6.90
2019-06-07T18:49:39.691Z,6.80
2019-06-07T18:52:13.169Z,7.37
2019-06-07T18:54:42.645Z,8.08
2019-06-07T18:57:12.540Z,7.33
2019-06-07T18:59:42.234Z,7.95
2019-06-07T19:02:12.181Z,8.65
2019-06-07T19:04:41.590Z,8.38
2019-06-07T19:07:10.964Z,7.67
2019-06-07T19:09:40.388Z,8.40
2019-06-07T19:12:09.781Z,9.15
2019-06-07T19:14:39.163Z,8.38
2019-06-07T19:17:08.536Z,8.90
2019-06-07T19:19:39.255Z,9.90
2019-06-07T19:22:08.666Z,8.55
2019-06-07T19:24:38.673Z,9.68
2019-06-07T19:27:08.114Z,10.00
2019-06-07T19:29:40.460Z,9.28
2019-06-07T19:32:09.874Z,10.00
2019-06-07T19:34:39.300Z,10.48
2019-06-07T19:37:08.668Z,10.53
2019-06-07T19:39:38.138Z,10.10
2019-06-07T19:42:07.537Z,11.15
2019-06-07T19:44:51.709Z,11.60
2019-06-07T19:47:08.548Z,11.03
2019-06-07T19:49:37.937Z,11.08
2019-06-07T19:52:07.303Z,10.35
2019-06-07T19:54:36.714Z,11.53
2019-06-07T19:57:08.159Z,10.28
2019-06-07T19:59:37.532Z,11.35
2019-06-07T20:02:07.016Z,10.35
2019-06-07T20:04:36.341Z,10.63
2019-06-07T20:07:06.293Z,12.70
2019-06-07T20:09:35.929Z,11.43
2019-06-07T20:12:05.826Z,11.33
2019-06-07T20:14:35.362Z,12.93
2019-06-07T20:17:05.717Z,12.20
2019-06-07T20:19:35.098Z,12.50
2019-06-07T20:22:05.626Z,12.13
2019-06-07T20:24:37.913Z,11.53
2019-06-07T20:27:06.120Z,15.45
2019-06-07T20:29:35.552Z,12.20
2019-06-07T20:32:05.039Z,14.80
2019-06-07T20:34:34.419Z,11.78
2019-06-07T20:37:05.550Z,12.10
2019-06-07T20:39:34.994Z,11.22
2019-06-07T20:42:05.886Z,12.40
2019-06-07T20:44:35.620Z,11.63
2019-06-07T20:47:06.259Z,12.20
2019-06-07T20:49:35.753Z,12.07
2019-06-07T20:52:06.595Z,12.45
2019-06-07T20:54:36.544Z,12.45
2019-06-07T20:57:06.774Z,11.48
2019-06-07T20:59:36.384Z,11.83
2019-06-07T21:02:07.073Z,11.38
2019-06-07T21:04:36.516Z,11.90
2019-06-07T21:07:05.907Z,11.70
2019-06-07T21:09:35.330Z,11.63
2019-06-07T21:12:05.892Z,10.68
2019-06-07T21:14:35.268Z,11.20
2019-06-07T21:17:04.706Z,11.77
2019-06-07T21:19:34.218Z,11.73
2019-06-07T21:22:04.597Z,11.70
2019-06-07T21:24:34.890Z,11.88
2019-06-07T21:27:05.339Z,10.95
2019-06-07T21:29:34.929Z,11.10
2019-06-07T21:32:05.403Z,10.65
2019-06-07T21:34:35.117Z,11.30
2019-06-07T21:37:05.644Z,10.53
2019-06-07T21:39:35.368Z,11.80
2019-06-07T21:42:05.974Z,12.25
2019-06-07T21:44:35.745Z,11.00
2019-06-07T21:47:06.374Z,11.00
2019-06-07T21:49:36.080Z,10.93
2019-06-07T21:52:06.486Z,10.30
2019-06-07T21:54:35.959Z,10.90
2019-06-07T21:57:05.375Z,11.20
2019-06-07T21:59:34.741Z,11.10
2019-06-07T22:02:05.404Z,10.33
2019-06-07T22:04:35.007Z,9.78
2019-06-07T22:07:05.300Z,10.77
2019-06-07T22:09:34.952Z,10.20
2019-06-07T22:12:04.553Z,9.93
2019-06-07T22:14:34.157Z,10.28
2019-06-07T22:17:04.340Z,9.60
2019-06-07T22:19:33.742Z,10.75
2019-06-07T22:22:03.768Z,10.20
2019-06-07T22:24:34.304Z,10.40
2019-06-07T22:27:05.390Z,10.32
2019-06-07T22:29:34.850Z,10.38
2019-06-07T22:32:04.240Z,10.85
2019-06-07T22:34:33.825Z,10.72
2019-06-07T22:37:03.147Z,10.72
2019-06-07T22:39:32.631Z,10.58
2019-06-07T22:42:02.004Z,11.20
2019-06-07T22:44:31.393Z,10.95
2019-06-07T22:47:01.039Z,11.33
2019-06-07T22:49:30.493Z,10.13
2019-06-07T22:52:08.622Z,11.33
2019-06-07T22:54:31.049Z,11.53
2019-06-07T22:57:04.851Z,11.63
2019-06-07T23:02:04.796Z,10.60
2019-06-07T23:04:34.163Z,11.35
2019-06-07T23:07:03.584Z,11.48
2019-06-07T23:09:32.933Z,10.50
2019-06-07T23:12:02.360Z,10.55
2019-06-07T23:14:31.752Z,12.03
2019-06-07T23:17:01.307Z,11.57
2019-06-07T23:19:30.697Z,11.78
2019-06-07T23:22:00.117Z,10.40
2019-06-07T23:24:30.277Z,11.88
2019-06-07T23:26:59.623Z,10.85
2019-06-07T23:29:30.122Z,11.20
2019-06-07T23:31:59.576Z,11.43
2019-06-07T23:34:28.944Z,11.65
2019-06-07T23:36:58.326Z,10.88
2019-06-07T23:39:27.722Z,11.43
2019-06-07T23:41:57.103Z,11.40
2019-06-07T23:44:26.489Z,11.28
2019-06-07T23:47:10.434Z,12.03
2019-06-07T23:49:27.317Z,12.93
2019-06-07T23:51:56.985Z,11.88
2019-06-07T23:54:26.411Z,12.82
2019-06-07T23:56:55.911Z,11.80
2019-06-07T23:59:25.436Z,11.20
